Time;durP1;ratioP1;P1;durP2;ratioP2;P2;SDS_P1;SDS_P2;PMS_P1;PMS_P2;Temp;Humidity;BMP_temperature;BMP_pressure;BME280_temperature;BME280_humidity;BME280_pressure;Samples;Min_cycle;Max_cycle;Signal;HPM_P1;HPM_P2
2022/03/11 00:00:52;;;;;;;18.37;10.53;;;3.30;61.60;;;;;;5066062;28;20488;-72
2022/03/11 00:03:19;;;;;;;18.00;11.17;;;3.30;61.30;;;;;;5050431;28;20035;-72
2022/03/11 00:05:45;;;;;;;17.38;10.60;;;3.20;61.30;;;;;;5079225;28;20040;-72
2022/03/11 00:08:11;;;;;;;16.13;10.73;;;3.20;61.80;;;;;;5075422;28;20043;-72
2022/03/11 00:10:37;;;;;;;17.80;11.03;;;3.20;61.50;;;;;;5080458;28;20667;-72
2022/03/11 00:13:03;;;;;;;18.80;10.65;;;3.10;61.60;;;;;;5095961;28;20039;-72
2022/03/11 00:15:29;;;;;;;15.67;10.27;;;3.10;61.80;;;;;;5089839;28;20492;-72
2022/03/11 00:17:54;;;;;;;19.07;11.37;;;3.10;61.80;;;;;;5069919;28;20081;-72
2022/03/11 00:20:21;;;;;;;15.17;10.17;;;3.10;61.90;;;;;;5088976;28;20085;-72
2022/03/11 00:22:51;;;;;;;19.08;11.32;;;3.10;61.90;;;;;;5092663;28;20529;-72
2022/03/11 00:25:17;;;;;;;19.45;11.32;;;3.10;62.00;;;;;;5098901;28;20043;-72
2022/03/11 00:27:44;;;;;;;16.30;11.13;;;3.10;62.20;;;;;;5119649;28;20395;-72
2022/03/11 00:30:10;;;;;;;18.95;10.93;;;3.10;62.00;;;;;;5072205;28;20078;-72
2022/03/11 00:32:36;;;;;;;16.10;10.85;;;3.10;62.00;;;;;;5105812;28;20487;-72
2022/03/11 00:35:07;;;;;;;16.38;10.13;;;3.10;62.10;;;;;;5095213;28;20039;-72
2022/03/11 00:37:33;;;;;;;16.85;11.05;;;3.10;61.70;;;;;;5083794;28;20492;-72
2022/03/11 00:39:58;;;;;;;17.70;11.30;;;3.10;61.80;;;;;;5074539;28;20088;-72
2022/03/11 00:42:24;;;;;;;17.63;11.50;;;3.10;61.80;;;;;;5092733;27;20522;-72
2022/03/11 00:44:50;;;;;;;16.83;11.10;;;3.10;62.10;;;;;;5098795;28;20057;-72
2022/03/11 00:47:15;;;;;;;17.53;11.03;;;3.10;61.70;;;;;;5093755;28;20046;-72
2022/03/11 00:49:41;;;;;;;17.23;10.57;;;3.10;61.80;;;;;;5092985;28;20044;-72
2022/03/11 00:52:07;;;;;;;17.77;10.67;;;3.10;62.00;;;;;;5092016;28;20043;-72
2022/03/11 00:54:33;;;;;;;18.53;10.80;;;3.10;61.70;;;;;;5091436;28;20036;-72
2022/03/11 00:56:58;;;;;;;20.27;11.27;;;3.10;61.80;;;;;;5107606;28;20071;-72
2022/03/11 00:59:24;;;;;;;19.00;11.17;;;3.10;62.00;;;;;;5079116;28;20166;-72
2022/03/11 01:01:50;;;;;;;18.80;12.10;;;3.00;61.80;;;;;;5058619;28;20108;-72
2022/03/11 01:04:15;;;;;;;16.33;11.73;;;3.00;61.80;;;;;;5090747;28;20039;-72
2022/03/11 01:06:41;;;;;;;17.77;11.17;;;3.00;62.00;;;;;;5076347;28;20043;-72
2022/03/11 01:09:07;;;;;;;17.40;11.70;;;2.90;62.00;;;;;;5090396;28;20105;-72
2022/03/11 01:11:33;;;;;;;16.27;10.70;;;2.90;62.00;;;;;;5095316;28;20130;-72
2022/03/11 01:13:59;;;;;;;18.35;11.82;;;2.90;62.30;;;;;;5092056;27;20143;-72
2022/03/11 01:16:25;;;;;;;21.40;11.57;;;2.90;62.40;;;;;;5106266;27;20055;-72
2022/03/11 01:18:51;;;;;;;18.37;11.33;;;2.90;62.40;;;;;;5089436;28;20031;-72
2022/03/11 01:21:16;;;;;;;17.30;11.37;;;2.80;62.30;;;;;;5125571;27;20038;-72
2022/03/11 01:23:43;;;;;;;16.70;11.17;;;2.80;62.40;;;;;;5077690;28;20047;-72
2022/03/11 01:26:10;;;;;;;20.85;11.55;;;2.80;62.60;;;;;;5091856;27;20028;-72
2022/03/11 01:28:36;;;;;;;17.83;11.45;;;2.80;62.60;;;;;;5102861;28;20503;-72
2022/03/11 01:31:02;;;;;;;19.87;11.50;;;2.80;62.70;;;;;;5091003;28;20031;-72
2022/03/11 01:33:28;;;;;;;18.17;11.77;;;2.80;62.60;;;;;;5072262;28;20455;-72
2022/03/11 01:35:53;;;;;;;18.93;11.77;;;2.80;62.60;;;;;;5074594;28;20127;-72
2022/03/11 01:38:19;;;;;;;15.90;11.10;;;2.80;62.70;;;;;;5100313;28;20553;-72
2022/03/11 01:40:45;;;;;;;16.83;10.83;;;2.80;63.10;;;;;;5096911;28;20089;-72
2022/03/11 01:43:15;;;;;;;16.93;11.40;;;2.70;63.00;;;;;;5074427;28;20411;-72
2022/03/11 01:45:41;;;;;;;18.80;10.77;;;2.70;62.60;;;;;;5090749;28;20495;-72
2022/03/11 01:48:08;;;;;;;17.45;11.00;;;2.70;62.80;;;;;;5096008;28;20400;-72
2022/03/11 01:50:34;;;;;;;18.70;10.95;;;2.70;63.00;;;;;;5128054;27;20046;-72
2022/03/11 01:53:00;;;;;;;18.13;11.33;;;2.70;62.80;;;;;;5096421;28;20468;-72
2022/03/11 01:55:26;;;;;;;16.63;11.03;;;2.70;63.10;;;;;;5077029;28;20040;-72
2022/03/11 01:57:51;;;;;;;16.97;11.10;;;2.70;62.80;;;;;;5075950;28;20048;-72
2022/03/11 02:00:17;;;;;;;17.37;11.93;;;2.70;63.00;;;;;;5077227;28;20048;-72
2022/03/11 02:02:43;;;;;;;20.40;12.43;;;2.70;63.00;;;;;;5092547;28;20047;-72
2022/03/11 02:05:09;;;;;;;19.00;11.98;;;2.70;63.30;;;;;;5073536;27;20455;-72
2022/03/11 02:07:35;;;;;;;16.60;10.93;;;2.70;63.10;;;;;;5088357;28;20040;-72
2022/03/11 02:10:01;;;;;;;18.70;11.73;;;2.70;63.10;;;;;;5089762;27;20126;-72
2022/03/11 02:12:32;;;;;;;17.57;11.23;;;2.70;63.00;;;;;;5109772;28;20046;-72
2022/03/11 02:15:02;;;;;;;18.33;11.15;;;2.70;63.10;;;;;;5096447;28;20043;-72
2022/03/11 02:17:27;;;;;;;17.58;11.68;;;2.70;63.40;;;;;;5093663;28;20430;-72
2022/03/11 02:19:53;;;;;;;17.93;11.00;;;2.70;63.50;;;;;;5107565;27;20031;-72
2022/03/11 02:22:24;;;;;;;16.33;10.67;;;2.70;63.50;;;;;;5094259;28;20036;-72
2022/03/11 02:24:51;;;;;;;19.45;10.75;;;2.60;63.50;;;;;;5077401;28;20138;-72
2022/03/11 02:27:17;;;;;;;17.58;11.02;;;2.60;63.10;;;;;;5093813;28;20838;-72
2022/03/11 02:29:42;;;;;;;19.93;10.90;;;2.60;63.60;;;;;;5078187;28;20075;-72
2022/03/11 02:32:09;;;;;;;18.70;11.43;;;2.60;63.20;;;;;;5065785;28;20691;-72
2022/03/11 02:34:37;;;;;;;16.80;10.80;;;2.60;63.40;;;;;;5124192;27;20044;-72
2022/03/11 02:37:03;;;;;;;17.08;10.70;;;2.60;63.50;;;;;;5110365;28;20035;-72
2022/03/11 02:39:29;;;;;;;19.05;11.18;;;2.60;63.60;;;;;;5108903;28;20035;-72
2022/03/11 02:41:54;;;;;;;16.73;10.30;;;2.60;63.90;;;;;;5103443;28;20042;-72
2022/03/11 02:44:22;;;;;;;18.27;10.23;;;2.60;63.60;;;;;;5091804;28;20067;-72
2022/03/11 02:46:48;;;;;;;17.45;11.00;;;2.60;63.70;;;;;;5093283;28;20046;-72
2022/03/11 02:49:14;;;;;;;16.73;11.37;;;2.50;63.60;;;;;;5076083;28;20450;-72
2022/03/11 02:51:40;;;;;;;18.27;10.77;;;2.50;63.50;;;;;;5109682;28;20107;-72
2022/03/11 02:54:05;;;;;;;16.53;9.77;;;2.50;63.40;;;;;;5092780;28;20088;-72
2022/03/11 02:56:31;;;;;;;15.27;9.93;;;2.50;64.10;;;;;;5103584;28;20043;-72
2022/03/11 02:58:57;;;;;;;14.40;9.57;;;2.50;64.20;;;;;;5094480;28;20083;-72
2022/03/11 03:01:23;;;;;;;17.23;10.20;;;2.40;64.00;;;;;;5085423;28;20044;-72
2022/03/11 03:03:49;;;;;;;15.43;9.50;;;2.40;64.10;;;;;;5072955;28;20563;-72
2022/03/11 03:06:15;;;;;;;16.70;10.02;;;2.40;64.60;;;;;;5075715;28;20047;-72
2022/03/11 03:08:40;;;;;;;16.30;10.23;;;2.30;64.10;;;;;;5107731;28;20048;-72
2022/03/11 03:11:06;;;;;;;17.03;10.10;;;2.30;64.10;;;;;;5083331;28;20567;-72
2022/03/11 03:13:32;;;;;;;13.47;9.03;;;2.30;64.50;;;;;;5078365;28;20040;-72
2022/03/11 03:15:57;;;;;;;18.33;10.47;;;2.30;65.00;;;;;;5117513;27;20028;-72
2022/03/11 03:18:23;;;;;;;17.23;10.20;;;2.30;65.00;;;;;;5088536;28;20231;-72
2022/03/11 03:20:49;;;;;;;22.67;11.07;;;2.30;65.10;;;;;;5094142;28;20488;-72
2022/03/11 03:23:15;;;;;;;18.97;9.93;;;2.30;64.90;;;;;;5126732;27;20116;-72
2022/03/11 03:25:41;;;;;;;14.90;9.80;;;2.30;65.30;;;;;;5094214;28;20050;-72
2022/03/11 03:28:07;;;;;;;15.32;9.55;;;2.20;65.20;;;;;;5075878;28;20047;-72
2022/03/11 03:30:34;;;;;;;15.88;10.73;;;2.20;64.80;;;;;;5073527;28;20518;-72
2022/03/11 03:32:59;;;;;;;19.55;10.52;;;2.20;65.10;;;;;;5095476;28;20613;-72
2022/03/11 03:35:25;;;;;;;14.93;9.97;;;2.20;65.60;;;;;;5107008;27;20088;-72
2022/03/11 03:37:51;;;;;;;17.30;10.57;;;2.10;65.80;;;;;;5092290;28;20491;-72
2022/03/11 03:40:17;;;;;;;17.30;9.97;;;2.10;65.70;;;;;;5105113;28;20035;-72
2022/03/11 03:42:47;;;;;;;15.43;9.93;;;2.00;65.90;;;;;;5127251;27;20446;-72
2022/03/11 03:45:13;;;;;;;20.52;11.20;;;2.00;65.80;;;;;;5094289;28;20247;-72
2022/03/11 03:47:39;;;;;;;18.67;10.37;;;2.00;65.90;;;;;;5129009;27;20043;-72
2022/03/11 03:50:05;;;;;;;18.50;10.50;;;2.00;66.00;;;;;;5076436;28;20130;-71
2022/03/11 03:52:31;;;;;;;18.25;11.77;;;2.00;66.10;;;;;;5110889;28;20040;-71
2022/03/11 03:54:56;;;;;;;18.53;11.17;;;1.90;65.80;;;;;;5076335;28;20040;-71
2022/03/11 03:57:25;;;;;;;18.97;11.30;;;2.00;66.30;;;;;;5077242;28;20021;-71
2022/03/11 03:59:51;;;;;;;20.55;11.13;;;1.90;66.50;;;;;;5122484;27;20047;-71
2022/03/11 04:02:16;;;;;;;17.37;9.97;;;1.90;66.50;;;;;;5093789;28;20061;-71
2022/03/11 04:04:42;;;;;;;21.67;12.07;;;1.80;66.60;;;;;;5111082;28;20511;-71
2022/03/11 04:07:08;;;;;;;20.37;10.73;;;1.80;66.70;;;;;;5109411;28;20063;-71
2022/03/11 04:09:33;;;;;;;17.87;10.30;;;1.80;66.60;;;;;;5096047;28;20039;-71
2022/03/11 04:11:59;;;;;;;23.30;11.47;;;1.70;66.70;;;;;;5095032;28;20103;-71
2022/03/11 04:14:25;;;;;;;16.27;10.93;;;1.70;66.80;;;;;;5099656;28;20036;-71
2022/03/11 04:16:50;;;;;;;17.60;11.07;;;1.70;66.80;;;;;;5109121;28;20085;-71
2022/03/11 04:19:16;;;;;;;18.70;11.10;;;1.70;66.70;;;;;;5078868;28;20078;-71
2022/03/11 04:21:42;;;;;;;18.93;11.80;;;1.70;66.90;;;;;;5092027;28;20066;-71
2022/03/11 04:24:13;;;;;;;19.63;10.90;;;1.70;67.20;;;;;;5125730;28;20114;-71
2022/03/11 04:26:40;;;;;;;19.80;11.35;;;1.70;67.30;;;;;;5125340;28;20083;-72
2022/03/11 04:29:06;;;;;;;17.58;10.90;;;1.70;67.40;;;;;;5108015;28;20043;-72
2022/03/11 04:31:32;;;;;;;20.23;11.53;;;1.70;67.50;;;;;;5092478;28;20051;-72
2022/03/11 04:33:57;;;;;;;18.17;11.97;;;1.80;67.60;;;;;;5064031;28;20035;-72
2022/03/11 04:36:23;;;;;;;19.47;11.77;;;1.70;67.50;;;;;;5096871;28;20035;-72
2022/03/11 04:38:49;;;;;;;19.52;11.80;;;1.70;67.50;;;;;;5111148;28;20035;-72
2022/03/11 04:41:15;;;;;;;23.47;12.60;;;1.70;67.40;;;;;;5091610;28;20032;-72
2022/03/11 04:43:42;;;;;;;19.20;12.23;;;1.70;67.80;;;;;;5094055;28;20558;-72
2022/03/11 04:46:08;;;;;;;19.23;12.23;;;1.70;68.10;;;;;;5108776;28;20042;-72
2022/03/11 04:48:36;;;;;;;19.87;11.93;;;1.60;67.90;;;;;;5060779;28;20403;-72
2022/03/11 04:51:02;;;;;;;20.92;12.30;;;1.60;67.70;;;;;;5110349;28;20043;-72
2022/03/11 04:53:28;;;;;;;22.77;11.85;;;1.60;67.90;;;;;;5126829;28;20035;-72
2022/03/11 04:55:54;;;;;;;20.37;12.40;;;1.60;67.90;;;;;;5095189;28;20044;-72
2022/03/11 04:58:20;;;;;;;18.58;12.00;;;1.60;68.20;;;;;;5095377;28;20067;-72
2022/03/11 05:00:46;;;;;;;20.77;13.07;;;1.60;68.10;;;;;;5075912;28;20031;-72
2022/03/11 05:03:12;;;;;;;19.67;11.75;;;1.60;68.30;;;;;;5075636;28;20040;-72
2022/03/11 05:05:37;;;;;;;18.37;12.23;;;1.50;68.10;;;;;;5084287;28;20089;-72
2022/03/11 05:08:03;;;;;;;21.13;12.67;;;1.60;68.60;;;;;;5074602;28;20571;-72
2022/03/11 05:10:29;;;;;;;17.87;11.80;;;1.50;68.70;;;;;;5091855;28;20035;-72
2022/03/11 05:12:55;;;;;;;23.03;13.50;;;1.60;68.50;;;;;;5059692;28;20108;-72
2022/03/11 05:15:24;;;;;;;22.53;13.37;;;1.60;68.50;;;;;;5097552;28;20074;-72
2022/03/11 05:17:50;;;;;;;22.25;13.05;;;1.60;68.40;;;;;;5092333;28;20112;-72
2022/03/11 05:20:16;;;;;;;21.48;12.82;;;1.60;68.40;;;;;;5099508;28;20043;-72
2022/03/11 05:22:42;;;;;;;23.97;13.17;;;1.60;68.60;;;;;;5112160;28;20046;-72
2022/03/11 05:25:09;;;;;;;20.80;12.33;;;1.60;68.40;;;;;;5112447;28;20426;-72
2022/03/11 05:27:35;;;;;;;19.67;11.77;;;1.60;68.20;;;;;;5113431;28;20046;-72
2022/03/11 05:30:00;;;;;;;24.27;13.23;;;1.60;68.50;;;;;;5128762;27;20475;-71
2022/03/11 05:32:26;;;;;;;22.37;13.17;;;1.60;68.90;;;;;;5094026;28;20047;-71
2022/03/11 05:34:52;;;;;;;23.63;13.70;;;1.60;68.70;;;;;;5098233;28;20039;-71
2022/03/11 05:37:17;;;;;;;20.67;13.23;;;1.60;69.00;;;;;;5112554;28;20039;-71
2022/03/11 05:39:43;;;;;;;20.97;12.50;;;1.60;68.70;;;;;;5095651;28;20032;-71
2022/03/11 05:42:09;;;;;;;23.73;14.07;;;1.50;68.60;;;;;;5070687;28;20046;-71
2022/03/11 05:44:35;;;;;;;20.93;13.53;;;1.50;68.70;;;;;;5108868;27;20404;-71
2022/03/11 05:47:00;;;;;;;26.43;14.33;;;1.40;68.70;;;;;;5110166;28;20501;-71
2022/03/11 05:49:26;;;;;;;23.77;14.17;;;1.40;69.00;;;;;;5073497;28;20876;-71
2022/03/11 05:51:52;;;;;;;26.53;14.97;;;1.40;68.80;;;;;;5096294;28;20123;-71
2022/03/11 05:54:18;;;;;;;24.90;14.47;;;1.40;69.10;;;;;;5128151;27;20380;-71
2022/03/11 05:56:44;;;;;;;25.25;13.73;;;1.40;69.40;;;;;;5111223;28;20067;-71
2022/03/11 05:59:10;;;;;;;22.65;13.95;;;1.30;69.20;;;;;;5092667;28;20460;-71
2022/03/11 06:01:36;;;;;;;22.50;14.17;;;1.30;69.10;;;;;;5093464;28;20047;-71
2022/03/11 06:04:04;;;;;;;23.60;14.40;;;1.30;69.10;;;;;;5096113;28;20086;-71
2022/03/11 06:06:33;;;;;;;23.80;14.52;;;1.30;69.30;;;;;;5100131;28;20069;-71
2022/03/11 06:09:00;;;;;;;24.00;13.45;;;1.30;69.30;;;;;;5108577;27;20052;-71
2022/03/11 06:11:27;;;;;;;24.75;13.93;;;1.30;69.10;;;;;;5111040;28;20045;-71
2022/03/11 06:13:53;;;;;;;24.67;14.85;;;1.40;69.10;;;;;;5063026;28;20061;-71
2022/03/11 06:16:19;;;;;;;24.00;14.25;;;1.40;69.30;;;;;;5093686;28;20032;-71
2022/03/11 06:18:45;;;;;;;25.27;15.17;;;1.40;69.00;;;;;;5098190;28;20093;-71
2022/03/11 06:21:11;;;;;;;23.27;14.70;;;1.40;69.20;;;;;;5061438;28;20024;-71
2022/03/11 06:23:37;;;;;;;24.33;13.95;;;1.40;69.40;;;;;;5091640;28;20124;-72
2022/03/11 06:26:04;;;;;;;22.77;14.23;;;1.40;69.50;;;;;;5078445;28;20040;-72
2022/03/11 06:28:30;;;;;;;27.40;15.80;;;1.40;69.60;;;;;;5077901;28;20346;-72
2022/03/11 06:30:56;;;;;;;25.77;15.52;;;1.40;69.70;;;;;;5109234;28;20115;-72
2022/03/11 06:33:22;;;;;;;24.15;15.27;;;1.40;69.50;;;;;;5076794;28;20065;-72
2022/03/11 06:35:49;;;;;;;25.50;15.20;;;1.40;69.40;;;;;;5095578;28;20039;-72
2022/03/11 06:38:15;;;;;;;26.50;15.40;;;1.50;69.50;;;;;;5098727;28;20036;-72
2022/03/11 06:40:41;;;;;;;28.73;16.42;;;1.50;69.20;;;;;;5102623;28;20096;-72
2022/03/11 06:43:06;;;;;;;27.67;16.57;;;1.60;69.40;;;;;;5091714;28;20040;-72
2022/03/11 06:45:32;;;;;;;28.83;16.00;;;1.60;69.20;;;;;;5100922;28;20039;-72
2022/03/11 06:47:58;;;;;;;33.27;15.93;;;1.70;69.10;;;;;;5075297;28;20675;-72
2022/03/11 06:50:25;;;;;;;26.27;15.53;;;1.70;68.70;;;;;;5084873;28;20040;-72
2022/03/11 06:52:51;;;;;;;26.58;16.88;;;1.80;68.90;;;;;;5087784;28;20054;-72
2022/03/11 06:55:16;;;;;;;26.52;16.05;;;1.80;68.80;;;;;;5080383;28;20051;-72
2022/03/11 06:57:44;;;;;;;27.37;15.33;;;1.90;68.80;;;;;;5105494;28;20040;-72
2022/03/11 07:00:11;;;;;;;27.55;15.18;;;2.00;68.50;;;;;;5079615;28;20122;-72
2022/03/11 07:02:37;;;;;;;26.23;15.50;;;2.10;68.30;;;;;;5095550;28;20507;-72
2022/03/11 07:05:07;;;;;;;28.83;16.90;;;2.20;68.00;;;;;;5117903;27;20042;-72
2022/03/11 07:07:33;;;;;;;26.13;15.45;;;2.20;67.60;;;;;;5075075;28;20043;-72
2022/03/11 07:10:00;;;;;;;25.98;15.45;;;2.30;67.90;;;;;;5078425;28;20417;-72
2022/03/11 07:12:28;;;;;;;27.63;16.13;;;2.40;67.70;;;;;;5088191;28;20442;-72
2022/03/11 07:14:53;;;;;;;26.60;16.15;;;2.50;67.50;;;;;;5110712;28;20407;-72
2022/03/11 07:17:19;;;;;;;23.23;15.30;;;2.50;67.30;;;;;;5083153;28;20138;-72
2022/03/11 07:19:45;;;;;;;26.50;16.00;;;2.60;67.00;;;;;;5080817;28;20078;-72
2022/03/11 07:22:11;;;;;;;24.47;15.07;;;2.70;66.80;;;;;;5086542;28;20033;-72
2022/03/11 07:24:36;;;;;;;26.93;15.57;;;2.80;66.70;;;;;;5096262;28;20757;-72
2022/03/11 07:27:02;;;;;;;24.80;15.33;;;2.90;66.70;;;;;;5082486;28;20122;-72
2022/03/11 07:29:28;;;;;;;25.60;15.23;;;3.00;66.40;;;;;;5113609;28;20095;-72
2022/03/11 07:31:54;;;;;;;24.23;15.03;;;3.00;66.10;;;;;;5092928;28;20445;-72
2022/03/11 07:34:20;;;;;;;28.93;16.67;;;3.20;65.60;;;;;;5093240;28;20039;-72
2022/03/11 07:36:46;;;;;;;29.88;16.50;;;3.30;65.40;;;;;;5096577;28;20039;-72
2022/03/11 07:39:12;;;;;;;25.07;15.07;;;3.30;65.10;;;;;;5062070;28;20036;-72
2022/03/11 07:41:38;;;;;;;24.30;14.60;;;3.50;64.70;;;;;;5088434;28;20093;-72
2022/03/11 07:44:04;;;;;;;27.27;15.95;;;3.60;64.40;;;;;;5103597;28;20039;-72
2022/03/11 07:46:31;;;;;;;26.33;14.88;;;3.70;63.90;;;;;;5095587;28;20048;-72
2022/03/11 07:48:58;;;;;;;23.88;15.15;;;3.80;63.50;;;;;;5091784;28;20096;-72
2022/03/11 07:51:27;;;;;;;26.15;15.57;;;3.90;63.10;;;;;;5104604;28;20049;-72
2022/03/11 07:53:52;;;;;;;25.98;15.75;;;3.90;63.00;;;;;;5075311;27;20043;-72
2022/03/11 07:56:18;;;;;;;27.83;16.07;;;4.00;62.60;;;;;;5068813;28;20044;-72
2022/03/11 07:58:44;;;;;;;23.20;14.40;;;4.10;62.30;;;;;;5126158;27;20708;-72
2022/03/11 08:01:11;;;;;;;27.03;15.70;;;4.20;62.10;;;;;;5090839;28;20048;-72
2022/03/11 08:03:40;;;;;;;25.33;15.25;;;4.30;61.90;;;;;;5070795;28;20036;-72
2022/03/11 08:06:08;;;;;;;23.23;14.75;;;4.40;61.80;;;;;;5088679;28;20066;-72
2022/03/11 08:08:38;;;;;;;24.20;15.20;;;4.40;61.30;;;;;;5121344;28;20081;-72
2022/03/11 08:11:05;;;;;;;24.98;15.52;;;4.50;61.50;;;;;;5088072;28;20380;-72
2022/03/11 08:13:31;;;;;;;26.52;15.50;;;4.60;61.00;;;;;;5087488;28;20043;-72
2022/03/11 08:15:57;;;;;;;24.92;15.30;;;4.60;60.50;;;;;;5086225;28;20032;-72
2022/03/11 08:18:23;;;;;;;26.37;16.10;;;4.70;60.90;;;;;;5086369;28;20039;-72
2022/03/11 08:20:48;;;;;;;23.03;14.13;;;4.80;60.60;;;;;;5069641;28;20044;-72
2022/03/11 08:23:14;;;;;;;25.60;14.93;;;4.80;60.50;;;;;;5085430;28;20427;-72
2022/03/11 08:25:41;;;;;;;24.30;15.53;;;4.90;60.70;;;;;;5114922;28;20132;-72
2022/03/11 08:28:10;;;;;;;24.58;15.57;;;5.00;60.40;;;;;;5083943;28;20290;-72
2022/03/11 08:30:36;;;;;;;28.50;16.40;;;5.10;60.00;;;;;;5101645;28;20560;-72
2022/03/11 08:33:02;;;;;;;25.95;15.55;;;5.20;59.60;;;;;;5099608;28;20051;-72
2022/03/11 08:35:28;;;;;;;22.15;14.48;;;5.20;59.20;;;;;;5078637;28;20293;-72
2022/03/11 08:37:54;;;;;;;24.27;14.98;;;5.30;58.90;;;;;;5085100;28;20559;-72
2022/03/11 08:40:24;;;;;;;22.17;15.00;;;5.40;58.80;;;;;;5085811;28;20135;-72
2022/03/11 08:42:53;;;;;;;24.15;14.68;;;5.50;59.20;;;;;;5120013;28;20522;-70
2022/03/11 08:45:21;;;;;;;23.70;14.13;;;5.60;58.70;;;;;;5086187;28;20055;-71
2022/03/11 08:47:47;;;;;;;24.08;15.25;;;5.70;58.30;;;;;;5103808;28;20119;-71
2022/03/11 08:50:14;;;;;;;24.50;15.40;;;5.80;58.00;;;;;;5086445;28;20043;-70
2022/03/11 08:52:40;;;;;;;25.85;14.60;;;5.90;57.50;;;;;;5086422;28;20074;-73
2022/03/11 08:55:07;;;;;;;23.00;14.57;;;6.00;57.40;;;;;;5074233;28;20043;-73
2022/03/11 08:57:35;;;;;;;23.45;14.88;;;6.00;56.60;;;;;;5089903;28;20040;-71
2022/03/11 09:00:09;;;;;;;23.90;14.40;;;6.20;56.60;;;;;;5063406;28;20063;-71
2022/03/11 09:02:37;;;;;;;23.13;15.50;;;6.20;56.30;;;;;;5094820;28;20032;-71
2022/03/11 09:05:04;;;;;;;22.90;14.10;;;6.30;56.10;;;;;;5077968;28;20043;-71
2022/03/11 09:07:32;;;;;;;24.40;15.65;;;6.40;56.00;;;;;;5075489;28;20036;-70
2022/03/11 09:10:02;;;;;;;24.67;15.57;;;6.50;55.70;;;;;;5092967;28;20041;-70
2022/03/11 09:12:28;;;;;;;23.48;13.90;;;6.60;55.50;;;;;;5099621;28;20508;-70
2022/03/11 09:14:54;;;;;;;23.07;15.30;;;6.70;54.90;;;;;;5094029;28;20093;-70
2022/03/11 09:17:19;;;;;;;23.40;14.60;;;6.80;54.90;;;;;;5075691;28;20582;-71
2022/03/11 09:19:45;;;;;;;23.07;14.50;;;6.90;53.80;;;;;;5085791;28;20051;-71
2022/03/11 09:22:14;;;;;;;22.03;14.93;;;7.00;53.90;;;;;;5100784;28;20480;-71
2022/03/11 09:24:41;;;;;;;20.77;14.13;;;7.00;53.60;;;;;;5050389;28;20048;-71
2022/03/11 09:27:09;;;;;;;22.40;14.43;;;7.00;52.90;;;;;;5081925;28;20051;-71
2022/03/11 09:29:35;;;;;;;23.75;14.48;;;7.10;52.70;;;;;;5077415;28;20090;-71
2022/03/11 09:32:01;;;;;;;22.55;14.68;;;7.10;53.20;;;;;;5073763;28;20415;-71
2022/03/11 09:34:27;;;;;;;21.77;14.50;;;7.30;52.90;;;;;;5077675;28;20051;-71
2022/03/11 09:36:53;;;;;;;22.50;14.77;;;7.30;53.00;;;;;;5099366;28;20088;-71
2022/03/11 09:39:23;;;;;;;22.42;15.05;;;7.40;52.40;;;;;;5089916;28;20537;-71
2022/03/11 09:41:50;;;;;;;23.23;14.65;;;7.50;52.60;;;;;;5099596;28;20488;-71
2022/03/11 09:44:17;;;;;;;25.73;15.02;;;7.50;52.50;;;;;;5068666;28;20496;-71
2022/03/11 09:46:44;;;;;;;23.67;14.95;;;7.60;52.20;;;;;;5084899;28;20047;-71
2022/03/11 09:49:15;;;;;;;21.10;14.32;;;7.70;52.10;;;;;;5086164;28;20071;-72
2022/03/11 09:51:41;;;;;;;25.08;14.98;;;7.70;52.20;;;;;;5070333;28;20411;-72
2022/03/11 09:54:08;;;;;;;22.57;15.53;;;7.80;51.50;;;;;;5070399;28;20048;-72
2022/03/11 09:56:44;;;;;;;22.58;15.27;;;7.80;51.90;;;;;;5085528;28;20040;-71
2022/03/11 09:59:11;;;;;;;22.90;15.43;;;7.90;51.80;;;;;;5085029;28;20047;-72
2022/03/11 10:01:40;;;;;;;27.70;15.25;;;8.00;51.80;;;;;;5070983;28;20048;-72
2022/03/11 10:04:07;;;;;;;21.25;14.68;;;8.10;51.80;;;;;;5121861;27;20036;-72
2022/03/11 10:06:44;;;;;;;22.30;14.98;;;8.20;51.60;;;;;;5099804;28;20048;-72
2022/03/11 10:09:19;;;;;;;25.20;15.00;;;8.30;51.20;;;;;;5078004;28;20044;-72
2022/03/11 10:11:49;;;;;;;22.92;14.63;;;8.30;50.80;;;;;;5118910;27;20044;-72
2022/03/11 10:14:16;;;;;;;24.85;15.05;;;8.40;50.40;;;;;;5111885;27;20040;-72
2022/03/11 10:16:44;;;;;;;23.65;15.55;;;8.50;51.00;;;;;;5130128;27;20055;-72
2022/03/11 10:19:13;;;;;;;22.40;16.23;;;8.50;50.80;;;;;;5087570;28;20040;-72
2022/03/11 10:21:47;;;;;;;24.42;15.88;;;8.60;50.90;;;;;;5123999;27;20043;-72
2022/03/11 10:24:22;;;;;;;24.92;15.75;;;8.70;51.20;;;;;;5121532;27;20875;-72
2022/03/11 10:26:58;;;;;;;23.27;15.75;;;8.80;50.30;;;;;;5075850;28;20044;-72
2022/03/11 10:29:32;;;;;;;25.98;14.85;;;8.90;49.80;;;;;;5092413;28;20038;-72
2022/03/11 10:31:59;;;;;;;23.05;16.42;;;8.90;49.10;;;;;;5121690;27;20123;-72
2022/03/11 10:34:35;;;;;;;22.33;14.82;;;8.90;49.90;;;;;;5103152;28;20582;-72
2022/03/11 10:37:06;;;;;;;24.33;15.75;;;9.00;50.10;;;;;;5088318;28;20044;-72
2022/03/11 10:39:41;;;;;;;22.45;15.80;;;9.10;50.00;;;;;;5070350;28;20040;-72
2022/03/11 10:42:13;;;;;;;27.55;15.88;;;9.10;49.30;;;;;;5070980;28;20462;-72
2022/03/11 10:44:40;;;;;;;24.95;15.95;;;9.20;49.00;;;;;;5060156;28;20078;-72
2022/03/11 10:47:23;;;;;;;26.25;16.75;;;9.20;48.50;;;;;;5070223;28;20036;-72
2022/03/11 10:49:50;;;;;;;23.35;16.05;;;9.30;48.70;;;;;;5108573;27;20036;-72
2022/03/11 10:52:28;;;;;;;22.15;14.40;;;9.40;48.80;;;;;;5070202;28;20048;-72
2022/03/11 10:54:53;;;;;;;25.17;15.57;;;9.40;49.10;;;;;;5086501;28;20083;-72
2022/03/11 10:57:21;;;;;;;21.87;15.90;;;9.50;48.90;;;;;;5087585;28;20480;-72
2022/03/11 10:59:47;;;;;;;21.70;15.18;;;9.60;49.60;;;;;;5081735;28;20055;-72
2022/03/11 11:02:13;;;;;;;25.47;15.90;;;9.80;48.50;;;;;;5106783;28;20043;-72
2022/03/11 11:04:42;;;;;;;23.83;16.08;;;9.80;48.00;;;;;;5104847;28;20317;-72
2022/03/11 11:07:08;;;;;;;24.63;15.82;;;9.90;47.80;;;;;;5074517;28;20051;-72
2022/03/11 11:09:34;;;;;;;22.07;15.43;;;10.00;47.80;;;;;;5090303;28;20044;-72
2022/03/11 11:12:00;;;;;;;24.17;16.15;;;10.00;47.30;;;;;;5074379;28;20300;-72
2022/03/11 11:14:26;;;;;;;21.63;16.07;;;10.00;47.80;;;;;;5106781;28;20484;-72
2022/03/11 11:16:55;;;;;;;24.47;16.00;;;10.10;48.10;;;;;;5089105;28;20043;-72
2022/03/11 11:19:24;;;;;;;25.40;16.25;;;10.20;46.70;;;;;;5123898;27;20057;-72
2022/03/11 11:21:51;;;;;;;26.13;16.45;;;10.20;46.70;;;;;;5093057;28;20055;-72
2022/03/11 11:24:21;;;;;;;32.15;16.60;;;10.20;47.20;;;;;;5090457;28;20767;-73
2022/03/11 11:26:49;;;;;;;23.33;15.27;;;10.20;46.80;;;;;;5084042;28;20082;-73
2022/03/11 11:29:29;;;;;;;23.20;15.13;;;10.30;47.10;;;;;;5124228;27;20042;-72
2022/03/11 11:31:55;;;;;;;26.45;16.38;;;10.40;47.30;;;;;;5080916;28;20491;-72
2022/03/11 11:34:34;;;;;;;22.77;16.92;;;10.50;47.20;;;;;;5078537;27;20505;-72
2022/03/11 11:37:01;;;;;;;24.27;16.20;;;10.50;47.50;;;;;;5078218;28;20036;-72
2022/03/11 11:39:41;;;;;;;25.85;15.98;;;10.60;46.20;;;;;;5074014;28;20040;-74
2022/03/11 11:42:09;;;;;;;25.10;15.82;;;10.60;46.20;;;;;;5090760;28;20044;-72
2022/03/11 11:44:40;;;;;;;22.02;16.45;;;10.70;46.80;;;;;;5090627;28;20044;-72
2022/03/11 11:47:11;;;;;;;21.35;15.65;;;10.70;46.10;;;;;;5106165;28;20042;-72
2022/03/11 11:49:52;;;;;;;26.25;15.50;;;10.90;46.80;;;;;;5088713;28;20562;-72
2022/03/11 11:52:37;;;;;;;22.92;16.42;;;11.00;46.30;;;;;;5081738;28;20044;-72
2022/03/11 11:55:17;;;;;;;22.83;15.95;;;11.10;46.30;;;;;;5095266;28;20499;-72
2022/03/11 11:57:46;;;;;;;23.35;16.02;;;11.20;45.60;;;;;;5088925;28;20039;-72
2022/03/11 12:00:26;;;;;;;22.00;15.85;;;11.30;46.30;;;;;;5123761;27;20215;-72
2022/03/11 12:02:53;;;;;;;22.85;16.10;;;11.40;45.20;;;;;;5053723;28;20093;-72
2022/03/11 12:05:48;;;;;;;21.88;15.63;;;11.50;44.70;;;;;;5119447;27;21073;-72
2022/03/11 12:08:32;;;;;;;21.88;15.75;;;11.50;44.40;;;;;;5100138;28;20047;-72
2022/03/11 12:10:58;;;;;;;23.90;16.08;;;11.50;44.30;;;;;;5079181;28;20047;-72
2022/03/11 12:13:31;;;;;;;22.17;15.57;;;11.60;45.00;;;;;;5094105;28;20509;-72
2022/03/11 12:15:56;;;;;;;24.20;16.05;;;11.70;44.90;;;;;;5071452;28;20122;-72
2022/03/11 12:18:45;;;;;;;27.10;16.63;;;11.80;44.20;;;;;;5088724;28;20133;-72
2022/03/11 12:21:47;;;;;;;25.27;16.60;;;11.80;44.40;;;;;;5083367;28;20031;-72
2022/03/11 12:24:35;;;;;;;24.40;15.52;;;12.00;44.70;;;;;;5063596;28;20048;-72
2022/03/11 12:27:01;;;;;;;23.98;16.60;;;12.00;44.50;;;;;;5070899;28;20407;-73
2022/03/11 12:29:35;;;;;;;23.17;15.80;;;12.10;44.80;;;;;;5101125;28;20090;-73
2022/03/11 12:32:06;;;;;;;21.38;16.08;;;12.10;44.70;;;;;;5086560;28;20044;-73
2022/03/11 12:34:32;;;;;;;22.98;16.08;;;12.10;44.30;;;;;;5101712;28;20131;-73
2022/03/11 12:36:58;;;;;;;22.98;15.60;;;12.10;43.70;;;;;;5119121;27;20527;-73